sensor_id;sensor_type;location;lat;lon;timestamp;P1;durP1;ratioP1;P2;durP2;ratioP2
74749;SDS011;63269;53.330;-6.288;2023-09-12T00:01:34;3.95;;;1.20;;
74749;SDS011;63269;53.330;-6.288;2023-09-12T00:03:59;3.10;;;0.90;;
74749;SDS011;63269;53.330;-6.288;2023-09-12T00:06:25;2.97;;;1.17;;
74749;SDS011;63269;53.330;-6.288;2023-09-12T00:08:51;2.08;;;1.13;;
74749;SDS011;63269;53.330;-6.288;2023-09-12T00:11:17;1.48;;;0.90;;
74749;SDS011;63269;53.330;-6.288;2023-09-12T00:13:43;3.80;;;1.52;;
74749;SDS011;63269;53.330;-6.288;2023-09-12T00:16:09;2.08;;;0.95;;
74749;SDS011;63269;53.330;-6.288;2023-09-12T00:18:36;2.78;;;1.10;;
74749;SDS011;63269;53.330;-6.288;2023-09-12T00:21:05;3.35;;;1.40;;
74749;SDS011;63269;53.330;-6.288;2023-09-12T00:23:30;2.10;;;1.42;;
74749;SDS011;63269;53.330;-6.288;2023-09-12T00:25:56;3.78;;;1.38;;
74749;SDS011;63269;53.330;-6.288;2023-09-12T00:28:22;4.80;;;1.10;;
74749;SDS011;63269;53.330;-6.288;2023-09-12T00:30:48;4.57;;;1.10;;
74749;SDS011;63269;53.330;-6.288;2023-09-12T00:33:14;2.55;;;0.98;;
74749;SDS011;63269;53.330;-6.288;2023-09-12T00:35:40;4.40;;;1.40;;
74749;SDS011;63269;53.330;-6.288;2023-09-12T00:38:06;1.88;;;1.02;;
74749;SDS011;63269;53.330;-6.288;2023-09-12T00:40:32;3.28;;;1.00;;
74749;SDS011;63269;53.330;-6.288;2023-09-12T00:42:58;2.33;;;1.00;;
74749;SDS011;63269;53.330;-6.288;2023-09-12T00:45:24;1.83;;;1.05;;
74749;SDS011;63269;53.330;-6.288;2023-09-12T00:47:50;2.20;;;1.08;;
74749;SDS011;63269;53.330;-6.288;2023-09-12T00:50:17;4.15;;;2.13;;
74749;SDS011;63269;53.330;-6.288;2023-09-12T00:52:45;3.22;;;1.08;;
74749;SDS011;63269;53.330;-6.288;2023-09-12T00:55:12;4.07;;;1.10;;
74749;SDS011;63269;53.330;-6.288;2023-09-12T00:57:37;3.38;;;1.10;;
74749;SDS011;63269;53.330;-6.288;2023-09-12T01:00:04;1.88;;;1.05;;
74749;SDS011;63269;53.330;-6.288;2023-09-12T01:02:42;3.38;;;1.27;;
74749;SDS011;63269;53.330;-6.288;2023-09-12T01:05:10;1.85;;;1.00;;
74749;SDS011;63269;53.330;-6.288;2023-09-12T01:07:36;3.33;;;1.55;;
74749;SDS011;63269;53.330;-6.288;2023-09-12T01:10:03;3.10;;;0.95;;
74749;SDS011;63269;53.330;-6.288;2023-09-12T01:12:30;1.73;;;0.93;;
74749;SDS011;63269;53.330;-6.288;2023-09-12T01:14:56;2.42;;;0.98;;
74749;SDS011;63269;53.330;-6.288;2023-09-12T01:17:25;2.08;;;0.85;;
74749;SDS011;63269;53.330;-6.288;2023-09-12T01:19:52;2.47;;;0.90;;
74749;SDS011;63269;53.330;-6.288;2023-09-12T01:22:33;1.60;;;1.00;;
74749;SDS011;63269;53.330;-6.288;2023-09-12T01:27:51;2.00;;;1.45;;
74749;SDS011;63269;53.330;-6.288;2023-09-12T01:30:20;1.85;;;0.88;;
74749;SDS011;63269;53.330;-6.288;2023-09-12T01:32:48;1.60;;;0.90;;
74749;SDS011;63269;53.330;-6.288;2023-09-12T01:35:14;2.05;;;1.02;;
74749;SDS011;63269;53.330;-6.288;2023-09-12T01:37:39;3.60;;;1.15;;
74749;SDS011;63269;53.330;-6.288;2023-09-12T01:40:06;1.60;;;0.80;;
74749;SDS011;63269;53.330;-6.288;2023-09-12T01:42:42;5.97;;;1.48;;
74749;SDS011;63269;53.330;-6.288;2023-09-12T01:45:11;2.67;;;0.88;;
74749;SDS011;63269;53.330;-6.288;2023-09-12T01:47:40;5.05;;;1.27;;
74749;SDS011;63269;53.330;-6.288;2023-09-12T01:50:07;2.85;;;0.93;;
74749;SDS011;63269;53.330;-6.288;2023-09-12T01:52:35;4.03;;;0.90;;
74749;SDS011;63269;53.330;-6.288;2023-09-12T01:55:02;1.95;;;0.80;;
74749;SDS011;63269;53.330;-6.288;2023-09-12T01:57:27;1.65;;;0.90;;
74749;SDS011;63269;53.330;-6.288;2023-09-12T01:59:54;1.58;;;0.80;;
74749;SDS011;63269;53.330;-6.288;2023-09-12T02:02:20;3.08;;;1.08;;
74749;SDS011;63269;53.330;-6.288;2023-09-12T02:04:51;2.25;;;1.38;;
74749;SDS011;63269;53.330;-6.288;2023-09-12T02:07:27;3.95;;;1.00;;
74749;SDS011;63269;53.330;-6.288;2023-09-12T02:09:56;1.83;;;1.00;;
74749;SDS011;63269;53.330;-6.288;2023-09-12T02:12:22;2.08;;;0.80;;
74749;SDS011;63269;53.330;-6.288;2023-09-12T02:14:47;1.83;;;1.10;;
74749;SDS011;63269;53.330;-6.288;2023-09-12T02:17:13;2.33;;;0.77;;
74749;SDS011;63269;53.330;-6.288;2023-09-12T02:19:39;2.38;;;1.10;;
74749;SDS011;63269;53.330;-6.288;2023-09-12T02:22:05;2.97;;;1.10;;
74749;SDS011;63269;53.330;-6.288;2023-09-12T02:24:30;2.90;;;1.17;;
74749;SDS011;63269;53.330;-6.288;2023-09-12T02:26:59;2.07;;;0.90;;
74749;SDS011;63269;53.330;-6.288;2023-09-12T02:29:25;3.42;;;1.20;;
74749;SDS011;63269;53.330;-6.288;2023-09-12T02:31:51;2.03;;;1.02;;
74749;SDS011;63269;53.330;-6.288;2023-09-12T02:34:16;1.83;;;0.90;;
74749;SDS011;63269;53.330;-6.288;2023-09-12T02:36:42;2.10;;;0.93;;
74749;SDS011;63269;53.330;-6.288;2023-09-12T02:39:08;2.22;;;1.00;;
74749;SDS011;63269;53.330;-6.288;2023-09-12T02:41:34;1.67;;;1.10;;
74749;SDS011;63269;53.330;-6.288;2023-09-12T02:43:59;2.22;;;1.00;;
74749;SDS011;63269;53.330;-6.288;2023-09-12T02:46:25;2.42;;;1.10;;
74749;SDS011;63269;53.330;-6.288;2023-09-12T02:48:51;2.05;;;0.85;;
74749;SDS011;63269;53.330;-6.288;2023-09-12T02:51:16;1.80;;;0.75;;
74749;SDS011;63269;53.330;-6.288;2023-09-12T02:53:42;2.92;;;1.23;;
74749;SDS011;63269;53.330;-6.288;2023-09-12T02:56:07;3.00;;;1.00;;
74749;SDS011;63269;53.330;-6.288;2023-09-12T02:58:33;2.97;;;1.00;;
74749;SDS011;63269;53.330;-6.288;2023-09-12T03:00:59;3.20;;;1.17;;
74749;SDS011;63269;53.330;-6.288;2023-09-12T03:03:24;1.30;;;0.80;;
74749;SDS011;63269;53.330;-6.288;2023-09-12T03:06:00;2.30;;;0.88;;
74749;SDS011;63269;53.330;-6.288;2023-09-12T03:08:27;2.13;;;0.95;;
74749;SDS011;63269;53.330;-6.288;2023-09-12T03:10:57;2.33;;;0.80;;
74749;SDS011;63269;53.330;-6.288;2023-09-12T03:13:24;2.00;;;0.85;;
74749;SDS011;63269;53.330;-6.288;2023-09-12T03:15:50;1.35;;;0.70;;
74749;SDS011;63269;53.330;-6.288;2023-09-12T03:18:16;2.03;;;0.60;;
74749;SDS011;63269;53.330;-6.288;2023-09-12T03:20:42;1.65;;;0.80;;
74749;SDS011;63269;53.330;-6.288;2023-09-12T03:23:08;2.00;;;0.75;;
74749;SDS011;63269;53.330;-6.288;2023-09-12T03:25:37;1.83;;;1.08;;
74749;SDS011;63269;53.330;-6.288;2023-09-12T03:30:30;1.73;;;0.88;;
74749;SDS011;63269;53.330;-6.288;2023-09-12T03:32:58;2.05;;;0.90;;
74749;SDS011;63269;53.330;-6.288;2023-09-12T03:35:24;5.13;;;1.25;;
74749;SDS011;63269;53.330;-6.288;2023-09-12T03:37:49;3.33;;;0.90;;
74749;SDS011;63269;53.330;-6.288;2023-09-12T03:40:15;1.45;;;0.60;;
74749;SDS011;63269;53.330;-6.288;2023-09-12T03:42:41;2.10;;;1.00;;
74749;SDS011;63269;53.330;-6.288;2023-09-12T03:45:07;1.77;;;0.80;;
74749;SDS011;63269;53.330;-6.288;2023-09-12T03:47:33;1.95;;;0.90;;
74749;SDS011;63269;53.330;-6.288;2023-09-12T03:49:59;2.08;;;0.90;;
74749;SDS011;63269;53.330;-6.288;2023-09-12T03:52:25;2.78;;;0.70;;
74749;SDS011;63269;53.330;-6.288;2023-09-12T03:54:50;1.23;;;0.65;;
74749;SDS011;63269;53.330;-6.288;2023-09-12T03:57:16;2.88;;;0.98;;
74749;SDS011;63269;53.330;-6.288;2023-09-12T03:59:42;1.95;;;0.75;;
74749;SDS011;63269;53.330;-6.288;2023-09-12T04:02:08;2.90;;;1.00;;
74749;SDS011;63269;53.330;-6.288;2023-09-12T04:04:34;1.27;;;0.80;;
74749;SDS011;63269;53.330;-6.288;2023-09-12T04:07:00;5.25;;;1.02;;
74749;SDS011;63269;53.330;-6.288;2023-09-12T04:09:26;2.15;;;0.85;;
74749;SDS011;63269;53.330;-6.288;2023-09-12T04:11:53;2.53;;;0.95;;
74749;SDS011;63269;53.330;-6.288;2023-09-12T04:14:18;2.35;;;0.80;;
74749;SDS011;63269;53.330;-6.288;2023-09-12T04:16:44;1.92;;;0.90;;
74749;SDS011;63269;53.330;-6.288;2023-09-12T04:19:10;1.98;;;0.80;;
74749;SDS011;63269;53.330;-6.288;2023-09-12T04:21:36;1.67;;;0.75;;
74749;SDS011;63269;53.330;-6.288;2023-09-12T04:24:01;2.08;;;0.80;;
74749;SDS011;63269;53.330;-6.288;2023-09-12T04:26:27;1.35;;;0.80;;
74749;SDS011;63269;53.330;-6.288;2023-09-12T04:28:53;1.75;;;0.95;;
74749;SDS011;63269;53.330;-6.288;2023-09-12T04:31:18;2.92;;;0.90;;
74749;SDS011;63269;53.330;-6.288;2023-09-12T04:33:44;2.42;;;0.90;;
74749;SDS011;63269;53.330;-6.288;2023-09-12T04:36:10;1.35;;;0.93;;
74749;SDS011;63269;53.330;-6.288;2023-09-12T04:38:35;1.15;;;0.60;;
74749;SDS011;63269;53.330;-6.288;2023-09-12T04:44:23;2.30;;;0.90;;
74749;SDS011;63269;53.330;-6.288;2023-09-12T04:46:49;2.08;;;0.80;;
74749;SDS011;63269;53.330;-6.288;2023-09-12T04:49:15;2.17;;;0.73;;
74749;SDS011;63269;53.330;-6.288;2023-09-12T04:51:40;2.97;;;0.80;;
74749;SDS011;63269;53.330;-6.288;2023-09-12T04:54:08;3.38;;;0.80;;
74749;SDS011;63269;53.330;-6.288;2023-09-12T04:56:33;2.47;;;1.20;;
74749;SDS011;63269;53.330;-6.288;2023-09-12T04:58:59;3.20;;;1.30;;
74749;SDS011;63269;53.330;-6.288;2023-09-12T05:01:25;1.60;;;0.70;;
74749;SDS011;63269;53.330;-6.288;2023-09-12T05:03:51;1.73;;;0.90;;
74749;SDS011;63269;53.330;-6.288;2023-09-12T05:06:17;2.10;;;0.75;;
74749;SDS011;63269;53.330;-6.288;2023-09-12T05:08:43;2.28;;;0.85;;
74749;SDS011;63269;53.330;-6.288;2023-09-12T05:11:08;2.20;;;0.98;;
74749;SDS011;63269;53.330;-6.288;2023-09-12T05:13:34;3.42;;;0.70;;
74749;SDS011;63269;53.330;-6.288;2023-09-12T05:16:00;1.85;;;1.00;;
74749;SDS011;63269;53.330;-6.288;2023-09-12T05:18:26;3.20;;;0.90;;
74749;SDS011;63269;53.330;-6.288;2023-09-12T05:20:51;3.00;;;0.90;;
74749;SDS011;63269;53.330;-6.288;2023-09-12T05:23:17;3.13;;;1.20;;
74749;SDS011;63269;53.330;-6.288;2023-09-12T05:25:43;1.98;;;0.88;;
74749;SDS011;63269;53.330;-6.288;2023-09-12T05:28:08;2.50;;;1.13;;
74749;SDS011;63269;53.330;-6.288;2023-09-12T05:30:34;2.15;;;1.00;;
74749;SDS011;63269;53.330;-6.288;2023-09-12T05:33:01;3.75;;;0.85;;
74749;SDS011;63269;53.330;-6.288;2023-09-12T05:35:27;2.97;;;0.80;;
74749;SDS011;63269;53.330;-6.288;2023-09-12T05:37:53;1.40;;;0.65;;
74749;SDS011;63269;53.330;-6.288;2023-09-12T05:40:18;1.45;;;0.90;;
74749;SDS011;63269;53.330;-6.288;2023-09-12T05:42:44;2.97;;;0.70;;
74749;SDS011;63269;53.330;-6.288;2023-09-12T05:45:10;3.80;;;1.08;;
74749;SDS011;63269;53.330;-6.288;2023-09-12T05:47:35;2.13;;;1.00;;
74749;SDS011;63269;53.330;-6.288;2023-09-12T05:50:01;3.13;;;1.05;;
74749;SDS011;63269;53.330;-6.288;2023-09-12T05:52:30;3.20;;;0.80;;
74749;SDS011;63269;53.330;-6.288;2023-09-12T05:54:56;3.45;;;1.48;;
74749;SDS011;63269;53.330;-6.288;2023-09-12T05:57:22;2.45;;;1.20;;
74749;SDS011;63269;53.330;-6.288;2023-09-12T05:59:49;1.27;;;0.93;;
74749;SDS011;63269;53.330;-6.288;2023-09-12T06:02:14;5.25;;;1.23;;
74749;SDS011;63269;53.330;-6.288;2023-09-12T06:04:40;2.13;;;0.90;;
74749;SDS011;63269;53.330;-6.288;2023-09-12T06:07:06;2.75;;;1.30;;
74749;SDS011;63269;53.330;-6.288;2023-09-12T06:09:31;3.42;;;1.60;;
74749;SDS011;63269;53.330;-6.288;2023-09-12T06:11:57;3.30;;;1.60;;
74749;SDS011;63269;53.330;-6.288;2023-09-12T06:14:23;4.38;;;1.25;;
74749;SDS011;63269;53.330;-6.288;2023-09-12T06:16:48;2.33;;;1.30;;
74749;SDS011;63269;53.330;-6.288;2023-09-12T06:19:14;3.13;;;1.00;;
74749;SDS011;63269;53.330;-6.288;2023-09-12T06:21:40;2.67;;;1.40;;
74749;SDS011;63269;53.330;-6.288;2023-09-12T06:24:15;3.35;;;1.48;;
74749;SDS011;63269;53.330;-6.288;2023-09-12T06:26:49;3.63;;;1.63;;
74749;SDS011;63269;53.330;-6.288;2023-09-12T06:29:15;2.33;;;1.10;;
74749;SDS011;63269;53.330;-6.288;2023-09-12T06:31:40;3.88;;;1.73;;
74749;SDS011;63269;53.330;-6.288;2023-09-12T06:34:07;2.97;;;1.42;;
74749;SDS011;63269;53.330;-6.288;2023-09-12T06:36:36;3.28;;;1.83;;
74749;SDS011;63269;53.330;-6.288;2023-09-12T06:39:03;2.58;;;1.50;;
74749;SDS011;63269;53.330;-6.288;2023-09-12T06:41:30;3.70;;;1.42;;
74749;SDS011;63269;53.330;-6.288;2023-09-12T06:43:55;2.33;;;1.27;;
74749;SDS011;63269;53.330;-6.288;2023-09-12T06:46:23;4.32;;;1.80;;
74749;SDS011;63269;53.330;-6.288;2023-09-12T06:48:49;4.03;;;1.55;;
74749;SDS011;63269;53.330;-6.288;2023-09-12T06:51:15;4.68;;;1.95;;
74749;SDS011;63269;53.330;-6.288;2023-09-12T06:53:41;3.70;;;2.00;;
74749;SDS011;63269;53.330;-6.288;2023-09-12T06:56:08;3.90;;;1.88;;
74749;SDS011;63269;53.330;-6.288;2023-09-12T06:58:34;4.03;;;2.28;;
74749;SDS011;63269;53.330;-6.288;2023-09-12T07:01:06;6.00;;;2.60;;
74749;SDS011;63269;53.330;-6.288;2023-09-12T07:03:33;5.50;;;2.35;;
74749;SDS011;63269;53.330;-6.288;2023-09-12T07:06:00;5.78;;;2.60;;
74749;SDS011;63269;53.330;-6.288;2023-09-12T07:08:26;7.28;;;3.67;;
74749;SDS011;63269;53.330;-6.288;2023-09-12T07:10:54;3.60;;;2.35;;
74749;SDS011;63269;53.330;-6.288;2023-09-12T07:13:21;5.13;;;2.50;;
74749;SDS011;63269;53.330;-6.288;2023-09-12T07:15:49;5.28;;;2.58;;
74749;SDS011;63269;53.330;-6.288;2023-09-12T07:18:15;5.97;;;3.08;;
74749;SDS011;63269;53.330;-6.288;2023-09-12T07:20:41;5.25;;;2.45;;
74749;SDS011;63269;53.330;-6.288;2023-09-12T07:23:07;5.80;;;2.97;;
74749;SDS011;63269;53.330;-6.288;2023-09-12T07:25:40;7.30;;;3.08;;
74749;SDS011;63269;53.330;-6.288;2023-09-12T07:28:07;4.68;;;2.78;;
74749;SDS011;63269;53.330;-6.288;2023-09-12T07:30:33;5.88;;;3.03;;
74749;SDS011;63269;53.330;-6.288;2023-09-12T07:32:59;7.10;;;3.13;;
74749;SDS011;63269;53.330;-6.288;2023-09-12T07:35:25;4.95;;;2.83;;
74749;SDS011;63269;53.330;-6.288;2023-09-12T07:37:51;5.70;;;3.13;;
74749;SDS011;63269;53.330;-6.288;2023-09-12T07:40:16;7.00;;;2.80;;
74749;SDS011;63269;53.330;-6.288;2023-09-12T07:42:42;5.43;;;2.63;;
74749;SDS011;63269;53.330;-6.288;2023-09-12T07:45:08;7.90;;;3.05;;
74749;SDS011;63269;53.330;-6.288;2023-09-12T07:47:34;7.75;;;3.05;;
74749;SDS011;63269;53.330;-6.288;2023-09-12T07:50:00;5.82;;;2.88;;
74749;SDS011;63269;53.330;-6.288;2023-09-12T07:52:26;6.53;;;2.58;;
74749;SDS011;63269;53.330;-6.288;2023-09-12T07:54:58;7.18;;;2.40;;
74749;SDS011;63269;53.330;-6.288;2023-09-12T07:57:25;12.73;;;3.65;;
74749;SDS011;63269;53.330;-6.288;2023-09-12T07:59:50;6.55;;;2.50;;
74749;SDS011;63269;53.330;-6.288;2023-09-12T08:02:16;9.15;;;2.22;;
74749;SDS011;63269;53.330;-6.288;2023-09-12T08:04:42;6.60;;;2.25;;
74749;SDS011;63269;53.330;-6.288;2023-09-12T08:07:08;5.82;;;2.38;;
74749;SDS011;63269;53.330;-6.288;2023-09-12T08:12:21;7.90;;;2.25;;
74749;SDS011;63269;53.330;-6.288;2023-09-12T08:17:13;4.88;;;2.40;;
74749;SDS011;63269;53.330;-6.288;2023-09-12T08:19:40;4.13;;;2.35;;
74749;SDS011;63269;53.330;-6.288;2023-09-12T08:22:07;6.20;;;2.45;;
74749;SDS011;63269;53.330;-6.288;2023-09-12T08:24:34;6.60;;;2.22;;
74749;SDS011;63269;53.330;-6.288;2023-09-12T08:27:00;6.88;;;2.30;;
74749;SDS011;63269;53.330;-6.288;2023-09-12T08:29:28;6.53;;;1.98;;
74749;SDS011;63269;53.330;-6.288;2023-09-12T08:31:54;4.38;;;2.20;;
74749;SDS011;63269;53.330;-6.288;2023-09-12T08:34:20;4.63;;;1.83;;
74749;SDS011;63269;53.330;-6.288;2023-09-12T08:36:46;4.55;;;1.70;;
74749;SDS011;63269;53.330;-6.288;2023-09-12T08:39:13;4.90;;;2.38;;
74749;SDS011;63269;53.330;-6.288;2023-09-12T08:41:44;6.03;;;1.60;;
74749;SDS011;63269;53.330;-6.288;2023-09-12T08:44:12;4.70;;;1.60;;
74749;SDS011;63269;53.330;-6.288;2023-09-12T08:46:40;4.60;;;1.60;;
74749;SDS011;63269;53.330;-6.288;2023-09-12T08:49:07;5.47;;;2.45;;
74749;SDS011;63269;53.330;-6.288;2023-09-12T08:51:35;7.40;;;2.35;;
74749;SDS011;63269;53.330;-6.288;2023-09-12T08:54:02;10.38;;;2.95;;
74749;SDS011;63269;53.330;-6.288;2023-09-12T08:56:36;5.75;;;1.77;;
74749;SDS011;63269;53.330;-6.288;2023-09-12T08:59:04;7.82;;;2.10;;
74749;SDS011;63269;53.330;-6.288;2023-09-12T09:01:31;7.28;;;1.80;;
74749;SDS011;63269;53.330;-6.288;2023-09-12T09:03:58;4.70;;;1.75;;
74749;SDS011;63269;53.330;-6.288;2023-09-12T09:06:27;5.47;;;2.10;;
74749;SDS011;63269;53.330;-6.288;2023-09-12T09:08:58;9.73;;;2.00;;
74749;SDS011;63269;53.330;-6.288;2023-09-12T09:14:47;4.50;;;1.67;;
74749;SDS011;63269;53.330;-6.288;2023-09-12T09:17:13;4.63;;;1.60;;
74749;SDS011;63269;53.330;-6.288;2023-09-12T09:19:41;3.70;;;1.50;;
74749;SDS011;63269;53.330;-6.288;2023-09-12T09:22:08;4.05;;;1.23;;
74749;SDS011;63269;53.330;-6.288;2023-09-12T09:24:34;5.88;;;1.58;;
74749;SDS011;63269;53.330;-6.288;2023-09-12T09:27:00;5.40;;;1.20;;
74749;SDS011;63269;53.330;-6.288;2023-09-12T09:29:27;3.55;;;1.65;;
74749;SDS011;63269;53.330;-6.288;2023-09-12T09:31:59;3.65;;;1.55;;
74749;SDS011;63269;53.330;-6.288;2023-09-12T09:34:30;6.63;;;1.90;;
74749;SDS011;63269;53.330;-6.288;2023-09-12T09:36:57;4.07;;;1.30;;
74749;SDS011;63269;53.330;-6.288;2023-09-12T09:39:24;4.45;;;1.40;;
74749;SDS011;63269;53.330;-6.288;2023-09-12T09:41:52;4.40;;;1.20;;
74749;SDS011;63269;53.330;-6.288;2023-09-12T09:44:18;4.60;;;1.40;;
74749;SDS011;63269;53.330;-6.288;2023-09-12T09:46:50;5.55;;;1.13;;
74749;SDS011;63269;53.330;-6.288;2023-09-12T09:49:20;3.67;;;1.70;;
74749;SDS011;63269;53.330;-6.288;2023-09-12T09:51:46;3.97;;;1.05;;
74749;SDS011;63269;53.330;-6.288;2023-09-12T09:54:13;2.50;;;1.02;;
74749;SDS011;63269;53.330;-6.288;2023-09-12T09:56:46;2.88;;;1.00;;
74749;SDS011;63269;53.330;-6.288;2023-09-12T09:59:16;6.22;;;1.48;;
74749;SDS011;63269;53.330;-6.288;2023-09-12T10:01:44;3.80;;;1.30;;
74749;SDS011;63269;53.330;-6.288;2023-09-12T10:04:11;3.35;;;1.15;;
74749;SDS011;63269;53.330;-6.288;2023-09-12T10:06:37;3.78;;;1.20;;
74749;SDS011;63269;53.330;-6.288;2023-09-12T10:09:11;6.40;;;1.27;;
74749;SDS011;63269;53.330;-6.288;2023-09-12T10:11:39;6.03;;;1.75;;
74749;SDS011;63269;53.330;-6.288;2023-09-12T10:14:06;2.95;;;1.40;;
74749;SDS011;63269;53.330;-6.288;2023-09-12T10:16:33;3.88;;;1.15;;
74749;SDS011;63269;53.330;-6.288;2023-09-12T10:19:17;4.40;;;1.38;;
74749;SDS011;63269;53.330;-6.288;2023-09-12T10:24:13;3.35;;;1.05;;
74749;SDS011;63269;53.330;-6.288;2023-09-12T10:26:41;3.58;;;1.23;;
74749;SDS011;63269;53.330;-6.288;2023-09-12T10:29:12;2.63;;;1.75;;
74749;SDS011;63269;53.330;-6.288;2023-09-12T10:31:39;2.70;;;1.08;;
74749;SDS011;63269;53.330;-6.288;2023-09-12T10:34:05;3.53;;;0.90;;
74749;SDS011;63269;53.330;-6.288;2023-09-12T10:36:37;3.58;;;1.00;;
74749;SDS011;63269;53.330;-6.288;2023-09-12T10:39:04;3.60;;;1.00;;
74749;SDS011;63269;53.330;-6.288;2023-09-12T10:41:32;4.38;;;1.17;;
74749;SDS011;63269;53.330;-6.288;2023-09-12T10:44:02;2.10;;;1.00;;
74749;SDS011;63269;53.330;-6.288;2023-09-12T10:46:36;2.83;;;1.25;;
74749;SDS011;63269;53.330;-6.288;2023-09-12T10:49:09;2.17;;;1.13;;
74749;SDS011;63269;53.330;-6.288;2023-09-12T10:51:38;2.97;;;0.82;;
74749;SDS011;63269;53.330;-6.288;2023-09-12T10:54:06;1.83;;;1.00;;
74749;SDS011;63269;53.330;-6.288;2023-09-12T10:56:33;4.20;;;0.90;;
74749;SDS011;63269;53.330;-6.288;2023-09-12T11:01:38;3.03;;;0.82;;
74749;SDS011;63269;53.330;-6.288;2023-09-12T11:06:46;2.63;;;0.90;;
74749;SDS011;63269;53.330;-6.288;2023-09-12T11:09:16;2.13;;;0.98;;
74749;SDS011;63269;53.330;-6.288;2023-09-12T11:11:47;2.03;;;1.08;;
74749;SDS011;63269;53.330;-6.288;2023-09-12T11:14:35;3.10;;;1.08;;
74749;SDS011;63269;53.330;-6.288;2023-09-12T11:19:45;2.70;;;0.95;;
74749;SDS011;63269;53.330;-6.288;2023-09-12T11:22:32;2.67;;;0.97;;
74749;SDS011;63269;53.330;-6.288;2023-09-12T11:25:03;1.73;;;0.75;;
74749;SDS011;63269;53.330;-6.288;2023-09-12T11:27:31;3.35;;;1.20;;
74749;SDS011;63269;53.330;-6.288;2023-09-12T11:30:04;2.47;;;1.20;;
74749;SDS011;63269;53.330;-6.288;2023-09-12T11:32:32;2.72;;;0.93;;
74749;SDS011;63269;53.330;-6.288;2023-09-12T11:35:04;2.03;;;1.00;;
74749;SDS011;63269;53.330;-6.288;2023-09-12T11:37:32;2.25;;;1.10;;
74749;SDS011;63269;53.330;-6.288;2023-09-12T11:40:00;3.15;;;1.10;;
74749;SDS011;63269;53.330;-6.288;2023-09-12T11:42:27;1.92;;;1.08;;
74749;SDS011;63269;53.330;-6.288;2023-09-12T11:44:53;3.22;;;0.93;;
74749;SDS011;63269;53.330;-6.288;2023-09-12T11:47:19;2.22;;;0.88;;
74749;SDS011;63269;53.330;-6.288;2023-09-12T11:49:45;1.58;;;0.88;;
74749;SDS011;63269;53.330;-6.288;2023-09-12T11:52:14;2.03;;;0.80;;
74749;SDS011;63269;53.330;-6.288;2023-09-12T11:54:45;2.42;;;0.95;;
74749;SDS011;63269;53.330;-6.288;2023-09-12T11:57:12;5.00;;;1.27;;
74749;SDS011;63269;53.330;-6.288;2023-09-12T11:59:40;4.43;;;1.00;;
74749;SDS011;63269;53.330;-6.288;2023-09-12T12:02:08;3.22;;;0.95;;
74749;SDS011;63269;53.330;-6.288;2023-09-12T12:04:35;1.27;;;1.10;;
74749;SDS011;63269;53.330;-6.288;2023-09-12T12:07:02;2.63;;;0.82;;
74749;SDS011;63269;53.330;-6.288;2023-09-12T12:09:31;2.85;;;0.98;;
74749;SDS011;63269;53.330;-6.288;2023-09-12T12:12:03;3.72;;;1.33;;
74749;SDS011;63269;53.330;-6.288;2023-09-12T12:14:30;2.33;;;0.90;;
74749;SDS011;63269;53.330;-6.288;2023-09-12T12:17:05;3.67;;;1.05;;
74749;SDS011;63269;53.330;-6.288;2023-09-12T12:19:32;3.40;;;1.27;;
74749;SDS011;63269;53.330;-6.288;2023-09-12T12:21:59;6.20;;;1.00;;
74749;SDS011;63269;53.330;-6.288;2023-09-12T12:24:24;2.47;;;1.02;;
74749;SDS011;63269;53.330;-6.288;2023-09-12T12:26:50;2.45;;;0.88;;
74749;SDS011;63269;53.330;-6.288;2023-09-12T12:29:18;2.88;;;0.90;;
74749;SDS011;63269;53.330;-6.288;2023-09-12T12:31:43;1.77;;;0.90;;
74749;SDS011;63269;53.330;-6.288;2023-09-12T12:34:09;3.75;;;1.20;;
74749;SDS011;63269;53.330;-6.288;2023-09-12T12:36:40;2.35;;;1.08;;
74749;SDS011;63269;53.330;-6.288;2023-09-12T12:39:09;3.67;;;1.10;;
74749;SDS011;63269;53.330;-6.288;2023-09-12T12:41:37;2.97;;;1.10;;
74749;SDS011;63269;53.330;-6.288;2023-09-12T12:44:03;1.58;;;0.90;;
74749;SDS011;63269;53.330;-6.288;2023-09-12T12:46:30;2.72;;;1.10;;
74749;SDS011;63269;53.330;-6.288;2023-09-12T12:48:58;1.75;;;1.00;;
74749;SDS011;63269;53.330;-6.288;2023-09-12T12:51:28;2.00;;;1.00;;
74749;SDS011;63269;53.330;-6.288;2023-09-12T12:54:02;3.63;;;1.30;;
74749;SDS011;63269;53.330;-6.288;2023-09-12T12:56:31;2.22;;;0.85;;
74749;SDS011;63269;53.330;-6.288;2023-09-12T12:58:58;2.78;;;1.23;;
74749;SDS011;63269;53.330;-6.288;2023-09-12T13:01:28;1.73;;;0.85;;
74749;SDS011;63269;53.330;-6.288;2023-09-12T13:03:54;2.35;;;1.00;;
74749;SDS011;63269;53.330;-6.288;2023-09-12T13:06:21;3.03;;;1.00;;
74749;SDS011;63269;53.330;-6.288;2023-09-12T13:08:48;2.80;;;1.00;;
74749;SDS011;63269;53.330;-6.288;2023-09-12T13:11:15;2.97;;;1.13;;
74749;SDS011;63269;53.330;-6.288;2023-09-12T13:13:41;3.05;;;1.02;;
74749;SDS011;63269;53.330;-6.288;2023-09-12T13:16:09;1.63;;;0.82;;
74749;SDS011;63269;53.330;-6.288;2023-09-12T13:18:36;1.63;;;1.00;;
74749;SDS011;63269;53.330;-6.288;2023-09-12T13:21:03;3.92;;;1.05;;
74749;SDS011;63269;53.330;-6.288;2023-09-12T13:23:29;2.40;;;0.85;;
74749;SDS011;63269;53.330;-6.288;2023-09-12T13:25:56;2.17;;;1.38;;
74749;SDS011;63269;53.330;-6.288;2023-09-12T13:28:22;2.58;;;1.10;;
74749;SDS011;63269;53.330;-6.288;2023-09-12T13:30:54;2.17;;;1.10;;
74749;SDS011;63269;53.330;-6.288;2023-09-12T13:33:20;1.75;;;0.90;;
74749;SDS011;63269;53.330;-6.288;2023-09-12T13:35:47;2.10;;;1.30;;
74749;SDS011;63269;53.330;-6.288;2023-09-12T13:38:13;4.10;;;1.48;;
74749;SDS011;63269;53.330;-6.288;2023-09-12T13:40:41;5.32;;;1.60;;
74749;SDS011;63269;53.330;-6.288;2023-09-12T13:43:09;2.85;;;0.90;;
74749;SDS011;63269;53.330;-6.288;2023-09-12T13:45:36;2.67;;;1.33;;
74749;SDS011;63269;53.330;-6.288;2023-09-12T13:48:02;2.65;;;1.08;;
74749;SDS011;63269;53.330;-6.288;2023-09-12T13:50:29;1.90;;;1.05;;
74749;SDS011;63269;53.330;-6.288;2023-09-12T13:52:58;2.55;;;0.90;;
74749;SDS011;63269;53.330;-6.288;2023-09-12T13:55:28;3.45;;;1.10;;
74749;SDS011;63269;53.330;-6.288;2023-09-12T13:57:55;2.78;;;1.00;;
74749;SDS011;63269;53.330;-6.288;2023-09-12T14:00:20;2.03;;;1.13;;
74749;SDS011;63269;53.330;-6.288;2023-09-12T14:02:46;3.60;;;1.15;;
74749;SDS011;63269;53.330;-6.288;2023-09-12T14:05:12;2.72;;;1.20;;
74749;SDS011;63269;53.330;-6.288;2023-09-12T14:07:38;2.53;;;1.00;;
74749;SDS011;63269;53.330;-6.288;2023-09-12T14:10:06;2.70;;;1.25;;
74749;SDS011;63269;53.330;-6.288;2023-09-12T14:12:32;3.78;;;1.00;;
74749;SDS011;63269;53.330;-6.288;2023-09-12T14:14:58;2.67;;;1.35;;
74749;SDS011;63269;53.330;-6.288;2023-09-12T14:17:24;3.38;;;1.20;;
74749;SDS011;63269;53.330;-6.288;2023-09-12T14:19:50;2.92;;;1.27;;
74749;SDS011;63269;53.330;-6.288;2023-09-12T14:22:15;2.28;;;1.40;;
74749;SDS011;63269;53.330;-6.288;2023-09-12T14:24:41;3.53;;;1.20;;
74749;SDS011;63269;53.330;-6.288;2023-09-12T14:27:06;3.40;;;1.20;;
74749;SDS011;63269;53.330;-6.288;2023-09-12T14:29:32;2.20;;;1.40;;
74749;SDS011;63269;53.330;-6.288;2023-09-12T14:31:58;2.75;;;1.33;;
74749;SDS011;63269;53.330;-6.288;2023-09-12T14:34:27;3.60;;;1.40;;
74749;SDS011;63269;53.330;-6.288;2023-09-12T14:36:58;2.80;;;1.10;;
74749;SDS011;63269;53.330;-6.288;2023-09-12T14:39:24;1.90;;;1.13;;
74749;SDS011;63269;53.330;-6.288;2023-09-12T14:41:51;2.55;;;1.20;;
74749;SDS011;63269;53.330;-6.288;2023-09-12T14:44:23;2.83;;;1.15;;
74749;SDS011;63269;53.330;-6.288;2023-09-12T14:46:50;3.40;;;1.38;;
74749;SDS011;63269;53.330;-6.288;2023-09-12T14:49:16;3.38;;;1.30;;
74749;SDS011;63269;53.330;-6.288;2023-09-12T14:51:42;2.25;;;1.20;;
74749;SDS011;63269;53.330;-6.288;2023-09-12T14:54:08;1.58;;;1.05;;
74749;SDS011;63269;53.330;-6.288;2023-09-12T14:56:34;3.25;;;1.65;;
74749;SDS011;63269;53.330;-6.288;2023-09-12T14:59:01;2.83;;;0.90;;
74749;SDS011;63269;53.330;-6.288;2023-09-12T15:01:28;3.40;;;1.20;;